Cape Sakura — 7JHZ — position and weather

sailwx.info

Track history (hours):
 
Tides and Currents Weather Stations Pressure Air Temp Water Temp Dewpoint Dewpoint Depression Visibility Wind Speed Wind Dir Waves Ship Positions

Cape Sakura

Last reported at 2016-Apr-30 17:11 UTC. Time now 2016-May-03 18:14 UTC.
Position N 01°17' E 104°13'.

Length 292 m; draft 18.5 m.

Type: Cargo ship. MMSI: 432786000.

Date/timePositionNaut miles runAvg speedWind from/ knotsBaromVisibWave heightAir tempDewpointWater temp
2016-Apr-30 17:11N 01°17' E 104°13'6 8.7
2016-Apr-30 16:32N 01°16' E 104°07'4 3.7
2016-Apr-30 15:31N 01°18' E 104°03'0 0.0
2016-Apr-30 13:10N 01°18' E 104°03'0 0.0
2016-Apr-30 12:25N 01°17' E 104°03'0 0.0
2016-Apr-30 11:31N 01°17' E 104°03'0 0.0
2016-Apr-30 10:31N 01°17' E 104°03'0 0.0
2016-Apr-30 08:19N 01°18' E 104°03'0 0.0
2016-Apr-30 07:31N 01°17' E 104°03'0 0.1
2016-Apr-30 06:31N 01°18' E 104°03'0 0.2
2016-Apr-30 04:31N 01°18' E 104°04'0 0.0
2016-Apr-30 03:31N 01°18' E 104°04'0 0.0
2016-Apr-30 02:31N 01°18' E 104°04'0 0.0
2016-Apr-30 01:22N 01°18' E 104°04'0 0.0
2016-Apr-30 00:31N 01°18' E 104°04'0 0.0
2016-Apr-29 23:22N 01°18' E 104°04'0 0.0
2016-Apr-29 22:31N 01°18' E 104°04'0 0.1
2016-Apr-29 21:04N 01°18' E 104°04'0 0.0
2016-Apr-29 20:31N 01°18' E 104°04'1 0.6
2016-Apr-29 19:33N 01°17' E 104°04'3 2.5
2016-Apr-29 18:33N 01°16' E 104°06'9 9.1
2016-Apr-29 17:33N 01°14' E 103°57'9 8.8
2016-Apr-29 16:33N 01°11' E 103°49'8 8.3
2016-Apr-29 15:33N 01°05' E 103°43'8 7.6
2016-Apr-29 14:33N 01°05' E 103°35'9 8.8
2016-Apr-29 13:33N 01°10' E 103°28'  
Track history (hours):
 
Tides and Currents Weather Stations Pressure Air Temp Water Temp Dewpoint Dewpoint Depression Visibility Wind Speed Wind Dir Waves Ship Positions

Cape Sakura

Last reported at 2016-Apr-30 17:11 UTC. Time now 2016-May-03 18:14 UTC.
Position N 01°17' E 104°13'.

Length 292 m; draft 18.5 m.

Type: Cargo ship. MMSI: 432786000.

Date/timePositionNaut miles runAvg speedWind from/ knotsBaromVisibWave heightAir tempDewpointWater temp
2016-Apr-30 17:11N 01°17' E 104°13'6 8.7
2016-Apr-30 16:32N 01°16' E 104°07'4 3.7
2016-Apr-30 15:31N 01°18' E 104°03'0 0.0
2016-Apr-30 13:10N 01°18' E 104°03'0 0.0
2016-Apr-30 12:25N 01°17' E 104°03'0 0.0
2016-Apr-30 11:31N 01°17' E 104°03'0 0.0
2016-Apr-30 10:31N 01°17' E 104°03'0 0.0
2016-Apr-30 08:19N 01°18' E 104°03'0 0.0
2016-Apr-30 07:31N 01°17' E 104°03'0 0.1
2016-Apr-30 06:31N 01°18' E 104°03'0 0.2
2016-Apr-30 04:31N 01°18' E 104°04'0 0.0
2016-Apr-30 03:31N 01°18' E 104°04'0 0.0
2016-Apr-30 02:31N 01°18' E 104°04'0 0.0
2016-Apr-30 01:22N 01°18' E 104°04'0 0.0
2016-Apr-30 00:31N 01°18' E 104°04'0 0.0
2016-Apr-29 23:22N 01°18' E 104°04'0 0.0
2016-Apr-29 22:31N 01°18' E 104°04'0 0.1
2016-Apr-29 21:04N 01°18' E 104°04'0 0.0
2016-Apr-29 20:31N 01°18' E 104°04'1 0.6
2016-Apr-29 19:33N 01°17' E 104°04'3 2.5
2016-Apr-29 18:33N 01°16' E 104°06'9 9.1
2016-Apr-29 17:33N 01°14' E 103°57'9 8.8
2016-Apr-29 16:33N 01°11' E 103°49'8 8.3
2016-Apr-29 15:33N 01°05' E 103°43'8 7.6
2016-Apr-29 14:33N 01°05' E 103°35'9 8.8
2016-Apr-29 13:33N 01°10' E 103°28'  

Dump ship's entire track history